createdAt,value
2019-01-19T00:01:48.083Z,69.57
2019-01-19T00:05:10.420Z,96.03
2019-01-19T00:08:07.007Z,69.77
2019-01-19T00:11:35.546Z,68.70
2019-01-19T00:14:13.808Z,62.97
2019-01-19T00:17:09.152Z,51.77
2019-01-19T00:20:14.390Z,68.97
2019-01-19T00:23:27.652Z,66.10
2019-01-19T00:26:23.826Z,52.57
2019-01-19T00:29:24.886Z,64.20
2019-01-19T00:32:20.047Z,47.53
2019-01-19T00:35:31.932Z,50.53
2019-01-19T00:38:41.526Z,50.20
2019-01-19T00:41:37.193Z,59.37
2019-01-19T00:44:18.504Z,28.37
2019-01-19T00:47:06.341Z,47.33
2019-01-19T00:49:50.464Z,46.30
2019-01-19T00:52:37.025Z,44.60
2019-01-19T00:55:35.562Z,42.73
2019-01-19T00:58:26.007Z,38.73
2019-01-19T01:01:24.019Z,39.50
2019-01-19T01:04:14.447Z,66.83
2019-01-19T01:07:37.684Z,61.50
2019-01-19T01:10:46.511Z,71.13
2019-01-19T01:13:35.541Z,47.77
2019-01-19T01:16:16.719Z,37.77
2019-01-19T01:19:11.549Z,76.83
2019-01-19T01:22:17.497Z,74.13
2019-01-19T01:25:18.804Z,46.87
2019-01-19T01:27:55.418Z,35.20
2019-01-19T01:30:35.545Z,51.13
2019-01-19T01:33:22.238Z,45.07
2019-01-19T01:36:20.327Z,53.17
2019-01-19T01:39:22.594Z,49.93
2019-01-19T01:42:28.983Z,49.30
2019-01-19T01:45:40.888Z,69.07
2019-01-19T01:48:35.365Z,57.10
2019-01-19T01:51:11.156Z,43.83
2019-01-19T01:54:27.318Z,49.13
2019-01-19T01:56:59.332Z,53.87
2019-01-19T02:00:03.973Z,64.87
2019-01-19T02:03:05.837Z,29.47
2019-01-19T02:05:54.967Z,42.27
2019-01-19T02:08:49.208Z,52.97
2019-01-19T02:11:29.530Z,47.63
2019-01-19T02:14:22.364Z,36.50
2019-01-19T02:17:47.595Z,44.67
2019-01-19T02:20:59.559Z,51.50
2019-01-19T02:24:15.150Z,56.53
2019-01-19T02:27:06.435Z,49.53
2019-01-19T02:30:13.837Z,54.17
2019-01-19T02:33:19.305Z,42.47
2019-01-19T02:36:33.723Z,50.10
2019-01-19T02:39:32.734Z,58.27
2019-01-19T02:42:25.548Z,38.67
2019-01-19T02:45:43.916Z,43.13
2019-01-19T02:49:08.511Z,61.93
2019-01-19T02:52:21.941Z,60.67
2019-01-19T02:55:47.620Z,60.93
2019-01-19T02:59:10.448Z,54.37
2019-01-19T03:02:23.464Z,52.07
2019-01-19T03:05:32.906Z,55.17
2019-01-19T03:08:39.636Z,49.83
2019-01-19T03:11:50.648Z,61.63
2019-01-19T03:15:00.098Z,90.90
2019-01-19T03:18:09.396Z,106.30
2019-01-19T03:21:00.615Z,114.70
2019-01-19T03:24:11.779Z,86.57
2019-01-19T03:27:15.312Z,47.93
2019-01-19T03:30:24.129Z,103.77
2019-01-19T03:33:26.717Z,77.17
2019-01-19T03:36:10.124Z,59.90
2019-01-19T03:39:18.296Z,43.80
2019-01-19T03:42:16.932Z,46.83
2019-01-19T03:45:15.181Z,51.63
2019-01-19T03:47:57.517Z,57.50
2019-01-19T03:51:11.294Z,47.60
2019-01-19T03:54:10.854Z,65.43
2019-01-19T03:57:36.642Z,50.80
2019-01-19T04:00:35.717Z,46.67
2019-01-19T04:03:34.622Z,47.23
2019-01-19T04:06:20.323Z,51.53
2019-01-19T04:09:32.397Z,47.07
2019-01-19T04:12:47.683Z,46.47
2019-01-19T04:15:48.664Z,60.13
2019-01-19T04:18:43.918Z,54.00
2019-01-19T04:21:47.444Z,53.67
2019-01-19T04:24:24.196Z,65.83
2019-01-19T04:26:56.178Z,63.57
2019-01-19T04:29:25.393Z,61.53
2019-01-19T04:31:54.532Z,56.77
2019-01-19T04:34:24.178Z,49.57
2019-01-19T04:36:53.678Z,54.50
2019-01-19T04:39:22.844Z,51.27
2019-01-19T04:41:52.514Z,49.23
2019-01-19T04:44:21.822Z,49.87
2019-01-19T04:46:51.052Z,52.17
2019-01-19T04:49:20.213Z,49.07
2019-01-19T04:51:49.367Z,50.47
2019-01-19T04:54:18.527Z,48.93
2019-01-19T04:56:47.685Z,56.57
2019-01-19T04:59:17.268Z,53.67
2019-01-19T05:01:46.438Z,45.20
2019-01-19T05:04:15.512Z,42.77
2019-01-19T05:06:44.716Z,37.40
2019-01-19T05:09:13.855Z,40.50
2019-01-19T05:11:43.031Z,54.73
2019-01-19T05:14:12.188Z,79.40
2019-01-19T05:16:41.357Z,81.93
2019-01-19T05:19:10.486Z,68.97
2019-01-19T05:21:39.863Z,56.17
2019-01-19T05:24:09.106Z,70.50
2019-01-19T05:26:38.293Z,47.47
2019-01-19T05:29:07.458Z,40.23
2019-01-19T05:31:36.649Z,36.67
2019-01-19T05:34:05.854Z,36.13
2019-01-19T05:36:38.533Z,46.27
2019-01-19T05:39:08.105Z,48.80
2019-01-19T05:41:37.278Z,65.20
2019-01-19T05:44:06.518Z,146.73
2019-01-19T05:46:35.688Z,121.60
2019-01-19T05:49:04.855Z,71.53
2019-01-19T05:51:34.034Z,48.60
2019-01-19T05:54:03.212Z,52.73
2019-01-19T05:56:32.402Z,43.93
2019-01-19T05:59:01.575Z,46.70
2019-01-19T06:01:30.853Z,51.47
2019-01-19T06:04:00.038Z,50.30
2019-01-19T06:06:29.216Z,58.17
2019-01-19T06:08:58.335Z,59.40
2019-01-19T06:11:27.522Z,45.23
2019-01-19T06:13:56.690Z,42.30
2019-01-19T06:16:25.844Z,41.90
2019-01-19T06:18:55.410Z,47.30
2019-01-19T06:21:28.794Z,53.57
2019-01-19T06:23:57.896Z,50.60
2019-01-19T06:26:27.090Z,54.47
2019-01-19T06:28:56.300Z,55.33
2019-01-19T06:31:25.492Z,53.80
2019-01-19T06:33:54.925Z,46.27
2019-01-19T06:36:24.113Z,47.47
2019-01-19T06:38:53.293Z,48.87
2019-01-19T06:41:22.565Z,60.57
2019-01-19T06:43:51.681Z,177.83
2019-01-19T06:46:20.868Z,107.27
2019-01-19T06:48:50.043Z,50.80
2019-01-19T06:51:19.286Z,381.03
2019-01-19T06:53:49.089Z,220.00
2019-01-19T06:56:18.321Z,211.03
2019-01-19T06:58:47.546Z,42.77
2019-01-19T07:01:16.733Z,45.83
2019-01-19T07:03:45.915Z,54.93
2019-01-19T07:06:15.120Z,48.23
2019-01-19T07:08:44.256Z,62.10
2019-01-19T07:11:13.364Z,48.70
2019-01-19T07:13:42.555Z,47.83
2019-01-19T07:16:12.307Z,91.73
2019-01-19T07:18:43.374Z,73.87
2019-01-19T07:21:12.596Z,42.27
2019-01-19T07:23:41.753Z,33.57
2019-01-19T07:26:10.989Z,40.13
2019-01-19T07:28:40.469Z,77.87
2019-01-19T07:31:09.678Z,270.10
2019-01-19T07:33:38.866Z,58.13
2019-01-19T07:36:08.630Z,41.70
2019-01-19T07:38:37.870Z,38.93
2019-01-19T07:41:07.169Z,52.70
2019-01-19T07:43:36.527Z,44.10
2019-01-19T07:46:07.329Z,51.20
2019-01-19T07:48:36.631Z,92.90
2019-01-19T07:51:05.858Z,62.13
2019-01-19T07:53:35.116Z,55.57
2019-01-19T07:56:04.415Z,53.57
2019-01-19T07:58:33.644Z,148.60
2019-01-19T08:01:03.736Z,83.80
2019-01-19T08:03:32.910Z,121.90
2019-01-19T08:06:02.124Z,190.50
2019-01-19T08:08:31.328Z,192.17
2019-01-19T08:11:00.981Z,525.53
2019-01-19T08:13:30.577Z,171.00
2019-01-19T08:15:59.763Z,259.47
2019-01-19T08:18:29.338Z,117.37
2019-01-19T08:20:58.666Z,273.40
2019-01-19T08:23:27.892Z,142.70
2019-01-19T08:25:57.531Z,373.50
2019-01-19T08:28:26.791Z,135.97
2019-01-19T08:30:56.785Z,81.00
2019-01-19T08:33:25.945Z,232.37
2019-01-19T08:35:55.360Z,224.20
2019-01-19T08:38:24.532Z,240.43
2019-01-19T08:40:53.712Z,185.43
2019-01-19T08:43:45.983Z,304.73
2019-01-19T08:46:15.191Z,226.30
2019-01-19T08:48:44.404Z,175.43
2019-01-19T08:51:14.870Z,110.40
2019-01-19T08:53:44.977Z,187.03
2019-01-19T08:56:14.147Z,251.50
2019-01-19T08:58:43.349Z,278.13
2019-01-19T09:01:12.554Z,178.80
2019-01-19T09:03:41.796Z,219.20
2019-01-19T09:06:11.013Z,63.77
2019-01-19T09:08:40.238Z,116.27
2019-01-19T09:11:09.476Z,64.13
2019-01-19T09:13:38.693Z,95.93
2019-01-19T09:16:19.452Z,209.90
2019-01-19T09:18:48.658Z,158.53
2019-01-19T09:21:18.632Z,129.63
2019-01-19T09:23:59.060Z,95.77
2019-01-19T09:26:34.067Z,74.00
2019-01-19T09:29:03.909Z,194.00
2019-01-19T09:31:35.051Z,80.83
2019-01-19T09:34:04.588Z,217.70
2019-01-19T09:36:38.404Z,146.33
2019-01-19T09:39:10.882Z,317.30
2019-01-19T09:41:40.092Z,103.37
2019-01-19T09:44:09.302Z,96.07
2019-01-19T09:46:38.544Z,179.90
2019-01-19T09:49:08.114Z,129.40
2019-01-19T09:51:37.670Z,225.10
2019-01-19T09:54:06.874Z,295.13
2019-01-19T09:56:36.138Z,181.90
2019-01-19T09:59:05.362Z,87.47
2019-01-19T10:01:34.591Z,197.63
2019-01-19T10:04:04.222Z,197.70
2019-01-19T10:06:33.468Z,246.67
2019-01-19T10:09:05.687Z,373.80
2019-01-19T10:11:34.992Z,251.50
2019-01-19T10:14:05.237Z,166.27
2019-01-19T10:16:34.459Z,57.37
2019-01-19T10:19:04.616Z,97.03
2019-01-19T10:21:36.179Z,60.43
2019-01-19T10:24:05.705Z,52.73
2019-01-19T10:26:35.402Z,100.30
2019-01-19T10:29:04.912Z,77.17
2019-01-19T10:31:35.939Z,69.73
2019-01-19T10:34:05.288Z,125.80
2019-01-19T10:36:34.533Z,74.30
2019-01-19T10:39:05.452Z,81.43
2019-01-19T10:41:40.877Z,120.27
2019-01-19T10:44:08.770Z,42.80
2019-01-19T10:46:38.947Z,130.07
2019-01-19T10:49:08.155Z,95.50
2019-01-19T10:51:37.381Z,104.03
2019-01-19T10:54:06.658Z,103.10
2019-01-19T10:56:36.178Z,85.97
2019-01-19T10:59:05.698Z,52.73
2019-01-19T11:01:35.258Z,42.87
2019-01-19T11:04:04.513Z,57.23
2019-01-19T11:06:35.145Z,31.30
2019-01-19T11:09:05.894Z,41.90
2019-01-19T11:11:35.190Z,43.23
2019-01-19T11:14:04.497Z,65.90
2019-01-19T11:16:34.373Z,54.67
2019-01-19T11:19:04.224Z,199.63
2019-01-19T11:21:33.552Z,280.43
2019-01-19T11:24:03.056Z,50.90
2019-01-19T11:26:32.433Z,64.80
2019-01-19T11:29:04.090Z,110.03
2019-01-19T11:31:33.886Z,411.57
2019-01-19T11:34:03.636Z,157.00
2019-01-19T11:36:35.364Z,158.80
2019-01-19T11:39:07.834Z,187.90
2019-01-19T11:41:38.027Z,126.50
2019-01-19T11:44:07.403Z,81.27
2019-01-19T11:46:38.963Z,37.67
2019-01-19T11:49:08.155Z,86.60
2019-01-19T11:51:38.273Z,88.23
2019-01-19T11:54:08.143Z,97.47
2019-01-19T11:56:37.924Z,93.40
2019-01-19T11:59:07.312Z,159.27
2019-01-19T12:01:36.544Z,140.50
2019-01-19T12:04:07.487Z,118.53
2019-01-19T12:06:36.983Z,95.57
2019-01-19T12:09:07.582Z,68.47
2019-01-19T12:11:37.147Z,53.57
2019-01-19T12:14:07.695Z,89.53
2019-01-19T12:16:36.884Z,51.03
2019-01-19T12:19:06.085Z,40.73
2019-01-19T12:21:35.338Z,44.47
2019-01-19T12:24:05.620Z,110.17
2019-01-19T12:26:35.113Z,153.93
2019-01-19T12:29:04.369Z,115.80
2019-01-19T12:31:33.584Z,64.70
2019-01-19T12:34:03.448Z,172.13
2019-01-19T12:36:32.778Z,55.00
2019-01-19T12:39:02.011Z,193.07
2019-01-19T12:41:31.322Z,172.67
2019-01-19T12:44:00.885Z,147.53
2019-01-19T12:46:30.111Z,188.33
2019-01-19T12:48:59.433Z,126.83
2019-01-19T12:51:28.731Z,192.37
2019-01-19T12:53:57.935Z,124.67
2019-01-19T12:56:28.679Z,87.73
2019-01-19T12:58:59.753Z,83.63
2019-01-19T13:01:28.768Z,102.57
2019-01-19T13:03:57.998Z,87.60
2019-01-19T13:06:47.955Z,98.53
2019-01-19T13:09:26.547Z,99.67
2019-01-19T13:12:12.971Z,78.13
2019-01-19T13:14:52.727Z,53.07
2019-01-19T13:18:02.071Z,53.70
2019-01-19T13:21:24.495Z,74.83
2019-01-19T13:24:43.843Z,62.47
2019-01-19T13:27:34.767Z,98.13
2019-01-19T13:30:35.825Z,48.77
2019-01-19T13:33:25.851Z,144.57
2019-01-19T13:36:39.541Z,62.33
2019-01-19T13:39:39.274Z,86.67
2019-01-19T13:42:31.072Z,74.30
2019-01-19T13:45:22.673Z,60.53
2019-01-19T13:48:35.037Z,96.03
2019-01-19T13:52:00.958Z,131.20
2019-01-19T13:55:14.744Z,87.70
2019-01-19T13:58:36.872Z,98.73
2019-01-19T14:01:48.901Z,101.57
2019-01-19T14:05:02.286Z,103.20
2019-01-19T14:08:15.489Z,75.30
2019-01-19T14:11:45.324Z,207.03
2019-01-19T14:14:49.215Z,703.23
2019-01-19T14:17:53.513Z,137.77
2019-01-19T14:21:14.447Z,215.80
2019-01-19T14:24:18.793Z,552.17
2019-01-19T14:27:26.384Z,174.77
2019-01-19T14:30:34.232Z,286.30
2019-01-19T14:33:59.629Z,220.23
2019-01-19T14:37:25.146Z,108.00
2019-01-19T14:40:39.362Z,110.80
2019-01-19T14:44:11.154Z,239.83
2019-01-19T14:47:03.412Z,185.03
2019-01-19T14:50:35.236Z,231.03
2019-01-19T14:53:42.402Z,220.23
2019-01-19T14:56:43.003Z,109.33
2019-01-19T14:59:39.173Z,222.07
2019-01-19T15:03:02.292Z,227.40
2019-01-19T15:05:59.729Z,326.77
2019-01-19T15:08:52.075Z,256.43
2019-01-19T15:12:05.142Z,163.00
2019-01-19T15:15:50.146Z,173.37
2019-01-19T15:19:12.483Z,298.07
2019-01-19T15:22:17.700Z,301.67
2019-01-19T15:25:35.878Z,247.83
2019-01-19T15:28:20.797Z,225.37
2019-01-19T15:31:43.446Z,183.07
2019-01-19T15:35:01.627Z,171.63
2019-01-19T15:38:01.263Z,159.13
2019-01-19T15:41:04.565Z,165.40
2019-01-19T15:44:11.022Z,170.87
2019-01-19T15:47:19.070Z,168.30
2019-01-19T15:50:28.539Z,222.60
2019-01-19T15:53:56.994Z,215.63
2019-01-19T15:57:15.241Z,148.43
2019-01-19T16:00:38.124Z,189.40
2019-01-19T16:03:32.388Z,252.13
2019-01-19T16:06:32.611Z,174.17
2019-01-19T16:09:32.370Z,138.90
2019-01-19T16:12:08.157Z,119.97
2019-01-19T16:15:20.269Z,124.63
2019-01-19T16:18:08.446Z,127.70
2019-01-19T16:21:34.875Z,124.10
2019-01-19T16:24:28.910Z,106.83
2019-01-19T16:27:45.159Z,112.97
2019-01-19T16:31:27.616Z,109.90
2019-01-19T16:34:42.831Z,113.57
2019-01-19T16:37:47.628Z,117.40
2019-01-19T16:40:56.824Z,112.33
2019-01-19T16:43:40.853Z,107.57
2019-01-19T16:47:01.020Z,119.37
2019-01-19T16:49:56.870Z,125.93
2019-01-19T16:52:49.325Z,138.03
2019-01-19T16:55:52.660Z,153.57
2019-01-19T16:58:34.774Z,156.67
2019-01-19T17:01:44.906Z,143.77
2019-01-19T17:04:57.534Z,157.63
2019-01-19T17:08:09.464Z,144.57
2019-01-19T17:10:56.582Z,135.00
2019-01-19T17:13:58.101Z,148.40
2019-01-19T17:16:49.256Z,149.07
2019-01-19T17:20:01.546Z,140.07
2019-01-19T17:22:56.225Z,135.20
2019-01-19T17:26:18.022Z,183.33
2019-01-19T17:29:24.342Z,162.87
2019-01-19T17:32:08.355Z,185.10
2019-01-19T17:35:30.012Z,176.63
2019-01-19T17:38:37.616Z,158.37
2019-01-19T17:41:52.905Z,162.20
2019-01-19T17:44:35.534Z,155.03
2019-01-19T17:47:15.959Z,154.97
2019-01-19T17:50:24.348Z,134.40
2019-01-19T17:53:49.280Z,150.57
2019-01-19T17:56:51.300Z,143.77
2019-01-19T17:59:48.427Z,148.93
2019-01-19T18:02:41.564Z,184.67
2019-01-19T18:05:49.374Z,174.57
2019-01-19T18:08:58.483Z,137.47
2019-01-19T18:12:08.663Z,102.40
2019-01-19T18:15:21.639Z,101.20
2019-01-19T18:18:31.706Z,116.17
2019-01-19T18:21:33.979Z,171.70
2019-01-19T18:24:39.107Z,245.10
2019-01-19T18:27:49.217Z,270.70
2019-01-19T18:31:04.351Z,259.43
2019-01-19T18:33:59.368Z,281.07
2019-01-19T18:37:02.841Z,329.00
2019-01-19T18:40:00.474Z,381.03
2019-01-19T18:42:54.178Z,649.13
2019-01-19T18:46:04.798Z,806.73
2019-01-19T18:49:06.939Z,625.53
2019-01-19T18:52:14.136Z,528.90
2019-01-19T18:55:24.429Z,423.83
2019-01-19T18:58:42.053Z,329.83
2019-01-19T19:01:48.415Z,345.13
2019-01-19T19:05:04.691Z,355.60
2019-01-19T19:08:18.277Z,606.80
2019-01-19T19:11:30.603Z,543.70
2019-01-19T19:14:38.394Z,811.83
2019-01-19T19:17:44.974Z,689.30
2019-01-19T19:21:01.857Z,765.10
2019-01-19T19:23:49.471Z,607.03
2019-01-19T19:27:18.315Z,542.00
2019-01-19T19:30:15.424Z,514.73
2019-01-19T19:33:28.974Z,519.30
2019-01-19T19:36:39.496Z,508.60
2019-01-19T19:39:52.957Z,495.77
2019-01-19T19:42:54.282Z,628.50
2019-01-19T19:46:01.788Z,623.50
2019-01-19T19:49:18.257Z,774.33
2019-01-19T19:51:55.516Z,858.93
2019-01-19T19:54:25.776Z,1399.37
2019-01-19T19:56:54.950Z,754.60
2019-01-19T19:59:24.191Z,703.53
2019-01-19T20:01:53.741Z,644.20
2019-01-19T20:04:23.687Z,715.37
2019-01-19T20:06:52.918Z,715.67
2019-01-19T20:09:22.170Z,634.47
2019-01-19T20:11:52.435Z,651.87
2019-01-19T20:14:22.641Z,615.27
2019-01-19T20:16:51.865Z,690.47
2019-01-19T20:19:21.269Z,394.23
2019-01-19T20:21:50.522Z,622.33
2019-01-19T20:24:19.768Z,708.77
2019-01-19T20:26:50.589Z,806.47
2019-01-19T20:29:20.335Z,825.67
2019-01-19T20:31:49.641Z,698.67
2019-01-19T20:34:21.070Z,657.97
2019-01-19T20:36:50.375Z,721.03
2019-01-19T20:39:19.612Z,744.43
2019-01-19T20:41:49.529Z,1144.57
2019-01-19T20:44:18.877Z,1027.30
2019-01-19T20:46:48.116Z,854.73
2019-01-19T20:49:17.419Z,790.93
2019-01-19T20:51:46.708Z,758.93
2019-01-19T20:54:15.937Z,926.50
2019-01-19T20:56:45.801Z,884.27
2019-01-19T20:59:15.054Z,736.37
2019-01-19T21:01:46.243Z,597.30
2019-01-19T21:04:15.837Z,833.57
2019-01-19T21:06:45.585Z,577.57
2019-01-19T21:09:14.844Z,567.43
2019-01-19T21:11:44.100Z,656.20
2019-01-19T21:14:13.344Z,490.63
2019-01-19T21:16:42.911Z,321.50
2019-01-19T21:19:12.137Z,301.67
2019-01-19T21:21:41.406Z,251.70
2019-01-19T21:24:10.629Z,244.73
2019-01-19T21:26:39.815Z,243.13
2019-01-19T21:29:09.054Z,235.83
2019-01-19T21:31:38.917Z,245.43
2019-01-19T21:34:08.352Z,208.00
2019-01-19T21:36:37.537Z,190.37
2019-01-19T21:39:08.614Z,205.00
2019-01-19T21:41:37.888Z,223.53
2019-01-19T21:44:07.141Z,267.17
2019-01-19T21:46:36.434Z,463.43
2019-01-19T21:49:07.042Z,683.97
2019-01-19T21:51:36.603Z,549.70
2019-01-19T21:54:05.945Z,377.17
2019-01-19T21:56:35.235Z,312.77
2019-01-19T21:59:04.471Z,313.47
2019-01-19T22:01:33.702Z,414.50
2019-01-19T22:04:03.052Z,403.07
2019-01-19T22:06:32.596Z,465.57
2019-01-19T22:09:01.897Z,545.77
2019-01-19T22:11:31.177Z,572.67
2019-01-19T22:14:00.449Z,480.03
2019-01-19T22:16:29.766Z,460.67
2019-01-19T22:19:00.769Z,434.27
2019-01-19T22:21:30.057Z,387.57
2019-01-19T22:24:00.015Z,377.70
2019-01-19T22:26:29.751Z,355.60
2019-01-19T22:28:59.362Z,347.37
2019-01-19T22:31:28.660Z,381.27
2019-01-19T22:33:57.927Z,404.77
2019-01-19T22:36:27.119Z,520.80
2019-01-19T22:38:56.339Z,285.83
2019-01-19T22:41:25.583Z,261.80
2019-01-19T22:43:54.788Z,269.50
2019-01-19T22:46:24.357Z,263.43
2019-01-19T22:48:53.561Z,247.30
2019-01-19T22:51:22.798Z,416.53
2019-01-19T22:53:52.040Z,328.73
2019-01-19T22:56:21.267Z,412.87
2019-01-19T22:58:50.509Z,387.40
2019-01-19T23:01:42.891Z,363.93
2019-01-19T23:04:12.084Z,329.20
2019-01-19T23:06:41.941Z,409.13
2019-01-19T23:09:12.138Z,361.30
2019-01-19T23:11:41.397Z,336.93
2019-01-19T23:14:12.294Z,339.67
2019-01-19T23:16:42.970Z,330.37
2019-01-19T23:19:12.213Z,369.20
2019-01-19T23:21:41.448Z,408.03
2019-01-19T23:24:10.678Z,366.97
2019-01-19T23:26:40.091Z,417.63
2019-01-19T23:29:09.225Z,352.23
2019-01-19T23:31:38.449Z,347.23
2019-01-19T23:34:07.622Z,428.60
2019-01-19T23:36:36.858Z,532.20
2019-01-19T23:39:08.861Z,423.13
2019-01-19T23:41:38.100Z,325.73
2019-01-19T23:44:07.697Z,337.00
2019-01-19T23:46:36.863Z,310.17
2019-01-19T23:52:57.594Z,332.03
2019-01-19T23:55:27.462Z,310.57
2019-01-19T23:57:57.296Z,331.07
